sensor_id;sensor_type;location;lat;lon;timestamp;temperature;humidity
20182;DHT22;10250;50.756;6.172;2023-09-19T00:00:01;16.00;99.90
20182;DHT22;10250;50.756;6.172;2023-09-19T00:02:03;16.00;99.90
20182;DHT22;10250;50.756;6.172;2023-09-19T00:04:09;16.10;99.90
20182;DHT22;10250;50.756;6.172;2023-09-19T00:06:10;16.10;99.90
20182;DHT22;10250;50.756;6.172;2023-09-19T00:08:13;16.00;99.90
20182;DHT22;10250;50.756;6.172;2023-09-19T00:10:14;16.10;99.90
20182;DHT22;10250;50.756;6.172;2023-09-19T00:12:15;16.00;99.90
20182;DHT22;10250;50.756;6.172;2023-09-19T00:14:16;16.00;99.90
20182;DHT22;10250;50.756;6.172;2023-09-19T00:16:17;16.00;99.90
20182;DHT22;10250;50.756;6.172;2023-09-19T00:18:20;16.00;99.90
20182;DHT22;10250;50.756;6.172;2023-09-19T00:20:22;16.00;99.90
20182;DHT22;10250;50.756;6.172;2023-09-19T00:22:25;16.00;99.90
20182;DHT22;10250;50.756;6.172;2023-09-19T00:24:26;16.00;99.90
20182;DHT22;10250;50.756;6.172;2023-09-19T00:26:28;16.00;99.90
20182;DHT22;10250;50.756;6.172;2023-09-19T00:28:31;15.90;99.90
20182;DHT22;10250;50.756;6.172;2023-09-19T00:30:32;15.90;99.90
20182;DHT22;10250;50.756;6.172;2023-09-19T00:32:33;15.90;99.90
20182;DHT22;10250;50.756;6.172;2023-09-19T00:34:34;15.90;99.90
20182;DHT22;10250;50.756;6.172;2023-09-19T00:36:34;15.80;99.90
20182;DHT22;10250;50.756;6.172;2023-09-19T00:38:35;15.80;99.90
20182;DHT22;10250;50.756;6.172;2023-09-19T00:40:35;15.80;99.90
20182;DHT22;10250;50.756;6.172;2023-09-19T00:42:40;15.90;99.90
20182;DHT22;10250;50.756;6.172;2023-09-19T00:44:41;15.80;99.90
20182;DHT22;10250;50.756;6.172;2023-09-19T00:46:41;15.70;99.90
20182;DHT22;10250;50.756;6.172;2023-09-19T00:48:43;15.80;99.90
20182;DHT22;10250;50.756;6.172;2023-09-19T00:50:46;15.90;99.90
20182;DHT22;10250;50.756;6.172;2023-09-19T00:52:49;15.90;99.90
20182;DHT22;10250;50.756;6.172;2023-09-19T00:54:50;15.90;99.90
20182;DHT22;10250;50.756;6.172;2023-09-19T00:56:51;15.90;99.90
20182;DHT22;10250;50.756;6.172;2023-09-19T00:58:55;15.80;99.90
20182;DHT22;10250;50.756;6.172;2023-09-19T01:00:55;15.80;99.90
20182;DHT22;10250;50.756;6.172;2023-09-19T01:02:56;15.80;99.90
20182;DHT22;10250;50.756;6.172;2023-09-19T01:04:57;15.70;99.90
20182;DHT22;10250;50.756;6.172;2023-09-19T01:06:58;15.70;99.90
20182;DHT22;10250;50.756;6.172;2023-09-19T01:08:59;15.70;99.90
20182;DHT22;10250;50.756;6.172;2023-09-19T01:11:20;15.60;99.90
20182;DHT22;10250;50.756;6.172;2023-09-19T01:13:53;15.60;99.90
20182;DHT22;10250;50.756;6.172;2023-09-19T01:16:27;15.50;99.90
20182;DHT22;10250;50.756;6.172;2023-09-19T01:19:12;15.50;99.90
20182;DHT22;10250;50.756;6.172;2023-09-19T01:26:10;15.50;99.90
20182;DHT22;10250;50.756;6.172;2023-09-19T01:30:27;15.40;99.90
20182;DHT22;10250;50.756;6.172;2023-09-19T01:32:30;15.30;99.90
20182;DHT22;10250;50.756;6.172;2023-09-19T01:36:47;15.20;99.90
20182;DHT22;10250;50.756;6.172;2023-09-19T01:38:48;15.20;99.90
20182;DHT22;10250;50.756;6.172;2023-09-19T01:41:00;15.20;99.90
20182;DHT22;10250;50.756;6.172;2023-09-19T01:49:39;15.10;99.90
20182;DHT22;10250;50.756;6.172;2023-09-19T01:54:11;15.10;99.90
20182;DHT22;10250;50.756;6.172;2023-09-19T01:56:19;15.10;99.90
20182;DHT22;10250;50.756;6.172;2023-09-19T01:58:34;15.00;99.90
20182;DHT22;10250;50.756;6.172;2023-09-19T02:00:38;15.00;99.90
20182;DHT22;10250;50.756;6.172;2023-09-19T02:02:45;14.90;99.90
20182;DHT22;10250;50.756;6.172;2023-09-19T02:04:47;15.00;99.90
20182;DHT22;10250;50.756;6.172;2023-09-19T02:06:48;15.00;99.90
20182;DHT22;10250;50.756;6.172;2023-09-19T02:08:49;14.90;99.90
20182;DHT22;10250;50.756;6.172;2023-09-19T02:10:50;15.00;99.90
20182;DHT22;10250;50.756;6.172;2023-09-19T02:12:51;15.00;99.90
20182;DHT22;10250;50.756;6.172;2023-09-19T02:14:51;15.10;99.90
20182;DHT22;10250;50.756;6.172;2023-09-19T02:16:52;14.90;99.90
20182;DHT22;10250;50.756;6.172;2023-09-19T02:18:53;14.80;99.90
20182;DHT22;10250;50.756;6.172;2023-09-19T02:20:53;14.90;99.90
20182;DHT22;10250;50.756;6.172;2023-09-19T02:22:54;14.90;99.90
20182;DHT22;10250;50.756;6.172;2023-09-19T02:24:55;14.90;99.90
20182;DHT22;10250;50.756;6.172;2023-09-19T02:26:58;14.80;99.90
20182;DHT22;10250;50.756;6.172;2023-09-19T02:29:04;14.80;99.90
20182;DHT22;10250;50.756;6.172;2023-09-19T02:31:05;14.90;99.90
20182;DHT22;10250;50.756;6.172;2023-09-19T02:33:06;14.80;99.90
20182;DHT22;10250;50.756;6.172;2023-09-19T02:35:07;14.80;99.90
20182;DHT22;10250;50.756;6.172;2023-09-19T02:37:08;14.80;99.90
20182;DHT22;10250;50.756;6.172;2023-09-19T02:39:09;14.80;99.90
20182;DHT22;10250;50.756;6.172;2023-09-19T02:41:11;14.90;99.90
20182;DHT22;10250;50.756;6.172;2023-09-19T02:43:12;14.90;99.90
20182;DHT22;10250;50.756;6.172;2023-09-19T02:45:12;14.90;99.90
20182;DHT22;10250;50.756;6.172;2023-09-19T02:47:13;14.90;99.90
20182;DHT22;10250;50.756;6.172;2023-09-19T02:49:15;14.90;99.90
20182;DHT22;10250;50.756;6.172;2023-09-19T02:51:18;14.80;99.90
20182;DHT22;10250;50.756;6.172;2023-09-19T02:53:18;14.90;99.90
20182;DHT22;10250;50.756;6.172;2023-09-19T02:55:19;14.90;99.90
20182;DHT22;10250;50.756;6.172;2023-09-19T02:57:22;14.80;99.90
20182;DHT22;10250;50.756;6.172;2023-09-19T02:59:24;14.90;99.90
20182;DHT22;10250;50.756;6.172;2023-09-19T03:01:25;14.90;99.90
20182;DHT22;10250;50.756;6.172;2023-09-19T03:03:27;14.80;99.90
20182;DHT22;10250;50.756;6.172;2023-09-19T03:05:29;14.90;99.90
20182;DHT22;10250;50.756;6.172;2023-09-19T03:07:33;14.80;99.90
20182;DHT22;10250;50.756;6.172;2023-09-19T03:09:34;14.70;99.90
20182;DHT22;10250;50.756;6.172;2023-09-19T03:11:34;14.70;99.90
20182;DHT22;10250;50.756;6.172;2023-09-19T03:13:35;14.60;99.90
20182;DHT22;10250;50.756;6.172;2023-09-19T03:15:41;14.70;99.90
20182;DHT22;10250;50.756;6.172;2023-09-19T03:17:45;14.60;99.90
20182;DHT22;10250;50.756;6.172;2023-09-19T03:19:46;14.60;99.90
20182;DHT22;10250;50.756;6.172;2023-09-19T03:21:47;14.70;99.90
20182;DHT22;10250;50.756;6.172;2023-09-19T03:23:49;14.60;99.90
20182;DHT22;10250;50.756;6.172;2023-09-19T03:25:50;14.60;99.90
20182;DHT22;10250;50.756;6.172;2023-09-19T03:27:52;14.70;99.90
20182;DHT22;10250;50.756;6.172;2023-09-19T03:29:53;14.80;99.90
20182;DHT22;10250;50.756;6.172;2023-09-19T03:31:54;14.80;99.90
20182;DHT22;10250;50.756;6.172;2023-09-19T03:33:54;14.70;99.90
20182;DHT22;10250;50.756;6.172;2023-09-19T03:35:55;14.70;99.90
20182;DHT22;10250;50.756;6.172;2023-09-19T03:37:58;14.60;99.90
20182;DHT22;10250;50.756;6.172;2023-09-19T03:39:59;14.60;99.90
20182;DHT22;10250;50.756;6.172;2023-09-19T03:42:00;14.60;99.90
20182;DHT22;10250;50.756;6.172;2023-09-19T03:44:01;14.60;99.90
20182;DHT22;10250;50.756;6.172;2023-09-19T03:46:02;14.50;99.90
20182;DHT22;10250;50.756;6.172;2023-09-19T03:48:10;14.50;99.90
20182;DHT22;10250;50.756;6.172;2023-09-19T03:50:11;14.50;99.90
20182;DHT22;10250;50.756;6.172;2023-09-19T03:52:11;14.60;99.90
20182;DHT22;10250;50.756;6.172;2023-09-19T03:54:12;14.50;99.90
20182;DHT22;10250;50.756;6.172;2023-09-19T03:56:13;14.50;99.90
20182;DHT22;10250;50.756;6.172;2023-09-19T03:58:13;14.50;99.90
20182;DHT22;10250;50.756;6.172;2023-09-19T04:00:14;14.50;99.90
20182;DHT22;10250;50.756;6.172;2023-09-19T04:02:14;14.50;99.90
20182;DHT22;10250;50.756;6.172;2023-09-19T04:04:22;14.50;99.90
20182;DHT22;10250;50.756;6.172;2023-09-19T04:06:25;14.50;99.90
20182;DHT22;10250;50.756;6.172;2023-09-19T04:08:27;14.50;99.90
20182;DHT22;10250;50.756;6.172;2023-09-19T04:10:28;14.50;99.90
20182;DHT22;10250;50.756;6.172;2023-09-19T04:12:29;14.40;99.90
20182;DHT22;10250;50.756;6.172;2023-09-19T04:14:29;14.50;99.90
20182;DHT22;10250;50.756;6.172;2023-09-19T04:16:30;14.40;99.90
20182;DHT22;10250;50.756;6.172;2023-09-19T04:18:31;14.40;99.90
20182;DHT22;10250;50.756;6.172;2023-09-19T04:20:33;14.50;99.90
20182;DHT22;10250;50.756;6.172;2023-09-19T04:22:34;14.50;99.90
20182;DHT22;10250;50.756;6.172;2023-09-19T04:24:35;14.40;99.90
20182;DHT22;10250;50.756;6.172;2023-09-19T04:26:35;14.40;99.90
20182;DHT22;10250;50.756;6.172;2023-09-19T04:28:37;14.30;99.90
20182;DHT22;10250;50.756;6.172;2023-09-19T04:30:38;14.30;99.90
20182;DHT22;10250;50.756;6.172;2023-09-19T04:32:42;14.30;99.90
20182;DHT22;10250;50.756;6.172;2023-09-19T04:34:42;14.30;99.90
20182;DHT22;10250;50.756;6.172;2023-09-19T04:36:43;14.30;99.90
20182;DHT22;10250;50.756;6.172;2023-09-19T04:38:44;14.30;99.90
20182;DHT22;10250;50.756;6.172;2023-09-19T04:40:46;14.30;99.90
20182;DHT22;10250;50.756;6.172;2023-09-19T04:42:53;14.30;99.90
20182;DHT22;10250;50.756;6.172;2023-09-19T04:44:57;14.30;99.90
20182;DHT22;10250;50.756;6.172;2023-09-19T04:47:00;14.30;99.90
20182;DHT22;10250;50.756;6.172;2023-09-19T04:49:00;14.30;99.90
20182;DHT22;10250;50.756;6.172;2023-09-19T04:51:01;14.20;99.90
20182;DHT22;10250;50.756;6.172;2023-09-19T04:53:02;14.20;99.90
20182;DHT22;10250;50.756;6.172;2023-09-19T04:55:03;14.30;99.90
20182;DHT22;10250;50.756;6.172;2023-09-19T04:57:04;14.30;99.90
20182;DHT22;10250;50.756;6.172;2023-09-19T04:59:06;14.20;99.90
20182;DHT22;10250;50.756;6.172;2023-09-19T05:01:07;14.30;99.90
20182;DHT22;10250;50.756;6.172;2023-09-19T05:03:11;14.30;99.90
20182;DHT22;10250;50.756;6.172;2023-09-19T05:05:12;14.30;99.90
20182;DHT22;10250;50.756;6.172;2023-09-19T05:07:17;14.30;99.90
20182;DHT22;10250;50.756;6.172;2023-09-19T05:09:17;14.30;99.90
20182;DHT22;10250;50.756;6.172;2023-09-19T05:11:21;14.20;99.90
20182;DHT22;10250;50.756;6.172;2023-09-19T05:13:22;14.20;99.90
20182;DHT22;10250;50.756;6.172;2023-09-19T05:15:24;14.20;99.90
20182;DHT22;10250;50.756;6.172;2023-09-19T05:17:25;14.20;99.90
20182;DHT22;10250;50.756;6.172;2023-09-19T05:19:25;14.20;99.90
20182;DHT22;10250;50.756;6.172;2023-09-19T05:21:26;14.10;99.90
20182;DHT22;10250;50.756;6.172;2023-09-19T05:23:30;14.20;99.90
20182;DHT22;10250;50.756;6.172;2023-09-19T05:25:32;14.10;99.90
20182;DHT22;10250;50.756;6.172;2023-09-19T05:27:33;14.10;99.90
20182;DHT22;10250;50.756;6.172;2023-09-19T05:29:34;14.20;99.90
20182;DHT22;10250;50.756;6.172;2023-09-19T05:31:34;14.20;99.90
20182;DHT22;10250;50.756;6.172;2023-09-19T05:33:36;14.10;99.90
20182;DHT22;10250;50.756;6.172;2023-09-19T05:35:37;14.00;99.90
20182;DHT22;10250;50.756;6.172;2023-09-19T05:37:40;14.10;99.90
20182;DHT22;10250;50.756;6.172;2023-09-19T05:39:40;14.10;99.90
20182;DHT22;10250;50.756;6.172;2023-09-19T05:41:41;14.10;99.90
20182;DHT22;10250;50.756;6.172;2023-09-19T05:43:42;14.10;99.90
20182;DHT22;10250;50.756;6.172;2023-09-19T05:45:44;14.10;99.90
20182;DHT22;10250;50.756;6.172;2023-09-19T05:47:45;14.10;99.90
20182;DHT22;10250;50.756;6.172;2023-09-19T05:49:46;14.20;99.90
20182;DHT22;10250;50.756;6.172;2023-09-19T05:51:48;14.20;99.90
20182;DHT22;10250;50.756;6.172;2023-09-19T05:53:49;14.20;99.90
20182;DHT22;10250;50.756;6.172;2023-09-19T05:55:50;14.10;99.90
20182;DHT22;10250;50.756;6.172;2023-09-19T05:57:51;14.00;99.90
20182;DHT22;10250;50.756;6.172;2023-09-19T05:59:52;14.10;99.90
20182;DHT22;10250;50.756;6.172;2023-09-19T06:01:53;14.20;99.90
20182;DHT22;10250;50.756;6.172;2023-09-19T06:03:53;14.10;99.90
20182;DHT22;10250;50.756;6.172;2023-09-19T06:05:54;14.00;99.90
20182;DHT22;10250;50.756;6.172;2023-09-19T06:07:58;14.00;99.90
20182;DHT22;10250;50.756;6.172;2023-09-19T06:10:04;14.10;99.90
20182;DHT22;10250;50.756;6.172;2023-09-19T06:12:08;14.10;99.90
20182;DHT22;10250;50.756;6.172;2023-09-19T06:14:12;14.10;99.90
20182;DHT22;10250;50.756;6.172;2023-09-19T06:16:13;14.10;99.90
20182;DHT22;10250;50.756;6.172;2023-09-19T06:18:13;14.10;99.90
20182;DHT22;10250;50.756;6.172;2023-09-19T06:20:17;14.00;99.90
20182;DHT22;10250;50.756;6.172;2023-09-19T06:22:18;14.00;99.90
20182;DHT22;10250;50.756;6.172;2023-09-19T06:24:19;14.10;99.90
20182;DHT22;10250;50.756;6.172;2023-09-19T06:26:21;14.10;99.90
20182;DHT22;10250;50.756;6.172;2023-09-19T06:28:22;14.10;99.90
20182;DHT22;10250;50.756;6.172;2023-09-19T06:30:25;14.10;99.90
20182;DHT22;10250;50.756;6.172;2023-09-19T06:32:29;14.20;99.90
20182;DHT22;10250;50.756;6.172;2023-09-19T06:34:30;14.10;99.90
20182;DHT22;10250;50.756;6.172;2023-09-19T06:36:30;14.20;99.90
20182;DHT22;10250;50.756;6.172;2023-09-19T06:38:31;14.20;99.90
20182;DHT22;10250;50.756;6.172;2023-09-19T06:40:34;14.30;99.90
20182;DHT22;10250;50.756;6.172;2023-09-19T06:42:35;14.30;99.90
20182;DHT22;10250;50.756;6.172;2023-09-19T06:44:37;14.30;99.90
20182;DHT22;10250;50.756;6.172;2023-09-19T06:46:38;14.40;99.90
20182;DHT22;10250;50.756;6.172;2023-09-19T06:48:39;14.40;99.90
20182;DHT22;10250;50.756;6.172;2023-09-19T06:50:40;14.40;99.90
20182;DHT22;10250;50.756;6.172;2023-09-19T06:52:41;14.50;99.90
20182;DHT22;10250;50.756;6.172;2023-09-19T06:54:42;14.50;99.90
20182;DHT22;10250;50.756;6.172;2023-09-19T06:56:42;14.60;99.90
20182;DHT22;10250;50.756;6.172;2023-09-19T06:58:43;14.50;99.90
20182;DHT22;10250;50.756;6.172;2023-09-19T07:00:44;14.50;99.90
20182;DHT22;10250;50.756;6.172;2023-09-19T07:02:45;14.50;99.90
20182;DHT22;10250;50.756;6.172;2023-09-19T07:04:45;14.50;99.90
20182;DHT22;10250;50.756;6.172;2023-09-19T07:06:50;14.50;99.90
20182;DHT22;10250;50.756;6.172;2023-09-19T07:08:50;14.50;99.90
20182;DHT22;10250;50.756;6.172;2023-09-19T07:10:51;14.50;99.90
20182;DHT22;10250;50.756;6.172;2023-09-19T07:14:59;14.60;99.90
20182;DHT22;10250;50.756;6.172;2023-09-19T07:17:00;14.50;99.90
20182;DHT22;10250;50.756;6.172;2023-09-19T07:19:01;14.50;99.90
20182;DHT22;10250;50.756;6.172;2023-09-19T07:21:02;14.60;99.90
20182;DHT22;10250;50.756;6.172;2023-09-19T07:23:05;14.70;99.90
20182;DHT22;10250;50.756;6.172;2023-09-19T07:25:06;14.70;99.90
20182;DHT22;10250;50.756;6.172;2023-09-19T07:27:07;14.80;99.90
20182;DHT22;10250;50.756;6.172;2023-09-19T07:29:09;14.80;99.90
20182;DHT22;10250;50.756;6.172;2023-09-19T07:31:09;14.80;99.90
20182;DHT22;10250;50.756;6.172;2023-09-19T07:33:10;14.80;99.90
20182;DHT22;10250;50.756;6.172;2023-09-19T07:35:13;14.90;99.90
20182;DHT22;10250;50.756;6.172;2023-09-19T07:37:15;14.90;99.90
20182;DHT22;10250;50.756;6.172;2023-09-19T07:39:16;14.90;99.90
20182;DHT22;10250;50.756;6.172;2023-09-19T07:41:17;15.00;99.90
20182;DHT22;10250;50.756;6.172;2023-09-19T07:43:18;14.90;99.90
20182;DHT22;10250;50.756;6.172;2023-09-19T07:45:18;15.00;99.90
20182;DHT22;10250;50.756;6.172;2023-09-19T07:47:20;15.10;99.90
20182;DHT22;10250;50.756;6.172;2023-09-19T07:49:21;15.10;99.90
20182;DHT22;10250;50.756;6.172;2023-09-19T07:51:22;15.00;99.90
20182;DHT22;10250;50.756;6.172;2023-09-19T07:53:22;15.00;99.90
20182;DHT22;10250;50.756;6.172;2023-09-19T07:55:23;15.10;99.90
20182;DHT22;10250;50.756;6.172;2023-09-19T07:57:24;15.10;99.90
20182;DHT22;10250;50.756;6.172;2023-09-19T07:59:25;15.20;99.90
20182;DHT22;10250;50.756;6.172;2023-09-19T08:01:25;15.20;99.90
20182;DHT22;10250;50.756;6.172;2023-09-19T08:03:27;15.30;99.90
20182;DHT22;10250;50.756;6.172;2023-09-19T08:05:28;15.30;99.90
20182;DHT22;10250;50.756;6.172;2023-09-19T08:07:28;15.40;99.90
20182;DHT22;10250;50.756;6.172;2023-09-19T08:09:29;15.40;99.90
20182;DHT22;10250;50.756;6.172;2023-09-19T08:11:33;15.40;99.90
20182;DHT22;10250;50.756;6.172;2023-09-19T08:13:34;15.40;99.90
20182;DHT22;10250;50.756;6.172;2023-09-19T08:15:34;15.40;99.90
20182;DHT22;10250;50.756;6.172;2023-09-19T08:17:35;15.50;99.90
20182;DHT22;10250;50.756;6.172;2023-09-19T08:19:36;15.60;99.90
20182;DHT22;10250;50.756;6.172;2023-09-19T08:21:36;15.50;99.90
20182;DHT22;10250;50.756;6.172;2023-09-19T08:23:37;15.60;99.90
20182;DHT22;10250;50.756;6.172;2023-09-19T08:25:38;15.70;99.90
20182;DHT22;10250;50.756;6.172;2023-09-19T08:27:40;15.70;99.90
20182;DHT22;10250;50.756;6.172;2023-09-19T08:29:40;15.70;99.90
20182;DHT22;10250;50.756;6.172;2023-09-19T08:31:42;15.80;99.90
20182;DHT22;10250;50.756;6.172;2023-09-19T08:33:43;15.80;99.90
20182;DHT22;10250;50.756;6.172;2023-09-19T08:35:49;15.80;99.90
20182;DHT22;10250;50.756;6.172;2023-09-19T08:37:49;15.90;99.90
20182;DHT22;10250;50.756;6.172;2023-09-19T08:39:51;15.90;99.90
20182;DHT22;10250;50.756;6.172;2023-09-19T08:41:58;15.90;99.90
20182;DHT22;10250;50.756;6.172;2023-09-19T08:44:00;15.90;99.90
20182;DHT22;10250;50.756;6.172;2023-09-19T08:46:10;16.00;99.90
20182;DHT22;10250;50.756;6.172;2023-09-19T08:48:25;15.90;99.90
20182;DHT22;10250;50.756;6.172;2023-09-19T08:50:27;16.00;99.90
20182;DHT22;10250;50.756;6.172;2023-09-19T08:52:36;16.20;99.90
20182;DHT22;10250;50.756;6.172;2023-09-19T08:54:38;16.20;99.90
20182;DHT22;10250;50.756;6.172;2023-09-19T08:56:41;16.20;99.90
20182;DHT22;10250;50.756;6.172;2023-09-19T08:58:48;16.30;99.90
20182;DHT22;10250;50.756;6.172;2023-09-19T09:00:52;16.20;99.90
20182;DHT22;10250;50.756;6.172;2023-09-19T09:02:55;16.10;99.90
20182;DHT22;10250;50.756;6.172;2023-09-19T09:04:57;16.10;99.90
20182;DHT22;10250;50.756;6.172;2023-09-19T09:06:59;16.20;99.90
20182;DHT22;10250;50.756;6.172;2023-09-19T09:09:01;16.20;99.90
20182;DHT22;10250;50.756;6.172;2023-09-19T09:11:02;16.30;99.90
20182;DHT22;10250;50.756;6.172;2023-09-19T09:13:03;16.30;99.90
20182;DHT22;10250;50.756;6.172;2023-09-19T09:15:07;16.40;99.90
20182;DHT22;10250;50.756;6.172;2023-09-19T09:17:10;16.50;99.90
20182;DHT22;10250;50.756;6.172;2023-09-19T09:19:11;16.50;99.90
20182;DHT22;10250;50.756;6.172;2023-09-19T09:21:13;16.60;99.90
20182;DHT22;10250;50.756;6.172;2023-09-19T09:23:16;16.60;99.90
20182;DHT22;10250;50.756;6.172;2023-09-19T09:25:16;16.60;99.90
20182;DHT22;10250;50.756;6.172;2023-09-19T09:27:18;16.70;99.90
20182;DHT22;10250;50.756;6.172;2023-09-19T09:31:42;16.70;99.90
20182;DHT22;10250;50.756;6.172;2023-09-19T09:33:53;16.80;99.90
20182;DHT22;10250;50.756;6.172;2023-09-19T09:35:59;16.80;99.90
20182;DHT22;10250;50.756;6.172;2023-09-19T09:38:03;16.70;99.90
20182;DHT22;10250;50.756;6.172;2023-09-19T09:40:08;16.80;99.90
20182;DHT22;10250;50.756;6.172;2023-09-19T09:42:32;16.80;99.90
20182;DHT22;10250;50.756;6.172;2023-09-19T09:44:34;16.90;99.90
20182;DHT22;10250;50.756;6.172;2023-09-19T09:46:37;16.90;99.90
20182;DHT22;10250;50.756;6.172;2023-09-19T09:51:15;16.80;99.90
20182;DHT22;10250;50.756;6.172;2023-09-19T09:55:26;16.90;99.90
20182;DHT22;10250;50.756;6.172;2023-09-19T09:57:27;17.00;99.90
20182;DHT22;10250;50.756;6.172;2023-09-19T09:59:53;17.00;99.90
20182;DHT22;10250;50.756;6.172;2023-09-19T10:01:54;17.00;99.90
20182;DHT22;10250;50.756;6.172;2023-09-19T10:03:58;17.10;99.90
20182;DHT22;10250;50.756;6.172;2023-09-19T10:05:58;17.10;99.90
20182;DHT22;10250;50.756;6.172;2023-09-19T10:08:10;17.10;99.90
20182;DHT22;10250;50.756;6.172;2023-09-19T10:10:13;17.10;99.90
20182;DHT22;10250;50.756;6.172;2023-09-19T10:12:15;17.10;99.90
20182;DHT22;10250;50.756;6.172;2023-09-19T10:14:17;17.10;99.90
20182;DHT22;10250;50.756;6.172;2023-09-19T10:16:24;17.20;99.90
20182;DHT22;10250;50.756;6.172;2023-09-19T10:18:26;17.20;99.90
20182;DHT22;10250;50.756;6.172;2023-09-19T10:20:29;17.30;99.90
20182;DHT22;10250;50.756;6.172;2023-09-19T10:22:31;17.40;99.90
20182;DHT22;10250;50.756;6.172;2023-09-19T10:24:36;17.40;99.90
20182;DHT22;10250;50.756;6.172;2023-09-19T10:26:39;17.30;99.90
20182;DHT22;10250;50.756;6.172;2023-09-19T10:28:46;17.30;99.90
20182;DHT22;10250;50.756;6.172;2023-09-19T10:30:49;17.30;99.90
20182;DHT22;10250;50.756;6.172;2023-09-19T10:33:02;17.30;99.90
20182;DHT22;10250;50.756;6.172;2023-09-19T10:35:05;17.30;99.90
20182;DHT22;10250;50.756;6.172;2023-09-19T10:37:07;17.30;99.90
20182;DHT22;10250;50.756;6.172;2023-09-19T10:39:09;17.20;99.90
20182;DHT22;10250;50.756;6.172;2023-09-19T10:41:14;17.30;99.90
20182;DHT22;10250;50.756;6.172;2023-09-19T10:43:17;17.40;99.90
20182;DHT22;10250;50.756;6.172;2023-09-19T10:45:19;17.30;99.90
20182;DHT22;10250;50.756;6.172;2023-09-19T10:47:21;17.40;99.90
20182;DHT22;10250;50.756;6.172;2023-09-19T10:49:24;17.30;99.90
20182;DHT22;10250;50.756;6.172;2023-09-19T10:51:33;17.40;99.90
20182;DHT22;10250;50.756;6.172;2023-09-19T10:53:49;17.40;99.90
20182;DHT22;10250;50.756;6.172;2023-09-19T10:55:55;17.40;99.90
20182;DHT22;10250;50.756;6.172;2023-09-19T10:57:58;17.40;99.90
20182;DHT22;10250;50.756;6.172;2023-09-19T11:00:15;17.40;99.90
20182;DHT22;10250;50.756;6.172;2023-09-19T11:02:24;17.40;99.90
20182;DHT22;10250;50.756;6.172;2023-09-19T11:04:29;17.50;99.90
20182;DHT22;10250;50.756;6.172;2023-09-19T11:06:30;17.60;99.90
20182;DHT22;10250;50.756;6.172;2023-09-19T11:10:51;17.60;99.90
20182;DHT22;10250;50.756;6.172;2023-09-19T11:12:55;17.50;99.90
20182;DHT22;10250;50.756;6.172;2023-09-19T11:14:56;17.50;99.90
20182;DHT22;10250;50.756;6.172;2023-09-19T11:22:13;17.60;99.90
20182;DHT22;10250;50.756;6.172;2023-09-19T11:26:42;17.50;99.90
20182;DHT22;10250;50.756;6.172;2023-09-19T11:28:47;17.50;99.90
20182;DHT22;10250;50.756;6.172;2023-09-19T11:30:50;17.50;99.90
20182;DHT22;10250;50.756;6.172;2023-09-19T11:33:19;17.60;99.90
20182;DHT22;10250;50.756;6.172;2023-09-19T11:38:03;17.60;99.90
20182;DHT22;10250;50.756;6.172;2023-09-19T11:40:10;17.60;99.90
20182;DHT22;10250;50.756;6.172;2023-09-19T11:44:43;17.70;99.90
20182;DHT22;10250;50.756;6.172;2023-09-19T11:46:54;17.70;99.90
20182;DHT22;10250;50.756;6.172;2023-09-19T11:49:06;17.70;99.90
20182;DHT22;10250;50.756;6.172;2023-09-19T11:51:18;17.80;99.90
20182;DHT22;10250;50.756;6.172;2023-09-19T11:53:31;17.90;99.90
20182;DHT22;10250;50.756;6.172;2023-09-19T11:55:36;18.00;99.90
20182;DHT22;10250;50.756;6.172;2023-09-19T11:57:39;18.00;99.90
20182;DHT22;10250;50.756;6.172;2023-09-19T11:59:42;18.10;99.90
20182;DHT22;10250;50.756;6.172;2023-09-19T12:01:50;18.10;99.90
20182;DHT22;10250;50.756;6.172;2023-09-19T12:03:57;18.20;99.90
20182;DHT22;10250;50.756;6.172;2023-09-19T12:05:59;18.10;99.90
20182;DHT22;10250;50.756;6.172;2023-09-19T12:08:00;18.10;99.90
20182;DHT22;10250;50.756;6.172;2023-09-19T12:10:05;18.10;99.90
20182;DHT22;10250;50.756;6.172;2023-09-19T12:12:06;18.10;99.90
20182;DHT22;10250;50.756;6.172;2023-09-19T12:14:08;18.20;99.90
20182;DHT22;10250;50.756;6.172;2023-09-19T12:16:27;18.30;99.90
20182;DHT22;10250;50.756;6.172;2023-09-19T12:18:30;18.30;99.90
20182;DHT22;10250;50.756;6.172;2023-09-19T12:20:44;18.30;99.90
20182;DHT22;10250;50.756;6.172;2023-09-19T12:22:49;18.30;99.90
20182;DHT22;10250;50.756;6.172;2023-09-19T12:24:50;18.30;99.90
20182;DHT22;10250;50.756;6.172;2023-09-19T12:26:51;18.30;99.90
20182;DHT22;10250;50.756;6.172;2023-09-19T12:28:52;18.30;99.90
20182;DHT22;10250;50.756;6.172;2023-09-19T12:30:55;18.40;99.90
20182;DHT22;10250;50.756;6.172;2023-09-19T12:32:55;18.40;99.90
20182;DHT22;10250;50.756;6.172;2023-09-19T12:34:59;18.40;99.90
20182;DHT22;10250;50.756;6.172;2023-09-19T12:37:10;18.50;99.90
20182;DHT22;10250;50.756;6.172;2023-09-19T12:39:27;18.50;99.90
20182;DHT22;10250;50.756;6.172;2023-09-19T12:41:30;18.60;99.90
20182;DHT22;10250;50.756;6.172;2023-09-19T12:43:32;18.60;99.90
20182;DHT22;10250;50.756;6.172;2023-09-19T12:45:34;18.70;99.90
20182;DHT22;10250;50.756;6.172;2023-09-19T12:47:37;18.60;99.90
20182;DHT22;10250;50.756;6.172;2023-09-19T12:52:06;18.70;99.90
20182;DHT22;10250;50.756;6.172;2023-09-19T12:54:07;18.70;99.90
20182;DHT22;10250;50.756;6.172;2023-09-19T12:56:13;18.80;99.90
20182;DHT22;10250;50.756;6.172;2023-09-19T12:58:18;18.80;99.90
20182;DHT22;10250;50.756;6.172;2023-09-19T13:00:19;18.70;99.90
20182;DHT22;10250;50.756;6.172;2023-09-19T13:02:24;18.80;99.90
20182;DHT22;10250;50.756;6.172;2023-09-19T13:04:26;18.70;99.90
20182;DHT22;10250;50.756;6.172;2023-09-19T13:06:35;18.70;99.90
20182;DHT22;10250;50.756;6.172;2023-09-19T13:08:40;18.60;99.90
20182;DHT22;10250;50.756;6.172;2023-09-19T13:11:11;18.70;99.90
20182;DHT22;10250;50.756;6.172;2023-09-19T13:13:24;18.70;99.90
20182;DHT22;10250;50.756;6.172;2023-09-19T13:15:28;18.60;99.90
20182;DHT22;10250;50.756;6.172;2023-09-19T13:17:43;18.60;99.90
20182;DHT22;10250;50.756;6.172;2023-09-19T13:21:55;18.70;99.90
20182;DHT22;10250;50.756;6.172;2023-09-19T13:24:26;18.60;99.90
20182;DHT22;10250;50.756;6.172;2023-09-19T13:26:28;18.60;99.90
20182;DHT22;10250;50.756;6.172;2023-09-19T13:28:29;18.70;99.90
20182;DHT22;10250;50.756;6.172;2023-09-19T13:30:29;18.70;99.90
20182;DHT22;10250;50.756;6.172;2023-09-19T13:32:32;18.70;99.90
20182;DHT22;10250;50.756;6.172;2023-09-19T13:34:33;18.60;99.90
20182;DHT22;10250;50.756;6.172;2023-09-19T13:36:34;18.60;99.90
20182;DHT22;10250;50.756;6.172;2023-09-19T13:38:34;18.60;99.90
20182;DHT22;10250;50.756;6.172;2023-09-19T13:40:35;18.60;99.90
20182;DHT22;10250;50.756;6.172;2023-09-19T13:42:36;18.70;99.90
20182;DHT22;10250;50.756;6.172;2023-09-19T13:44:37;18.70;99.90